sensor_id;sensor_type;location;lat;lon;timestamp;P1;durP1;ratioP1;P2;durP2;ratioP2
28577;SDS011;15769;52.248;15.818;2022-10-30T00:02:36;53.60;;;26.92;;
28577;SDS011;15769;52.248;15.818;2022-10-30T00:07:42;51.92;;;27.75;;
28577;SDS011;15769;52.248;15.818;2022-10-30T00:12:45;45.17;;;26.80;;
28577;SDS011;15769;52.248;15.818;2022-10-30T00:17:48;52.83;;;27.23;;
28577;SDS011;15769;52.248;15.818;2022-10-30T00:22:50;45.13;;;26.90;;
28577;SDS011;15769;52.248;15.818;2022-10-30T00:27:57;49.60;;;29.40;;
28577;SDS011;15769;52.248;15.818;2022-10-30T00:32:59;55.97;;;29.10;;
28577;SDS011;15769;52.248;15.818;2022-10-30T00:38:02;50.50;;;28.75;;
28577;SDS011;15769;52.248;15.818;2022-10-30T00:43:24;47.08;;;27.95;;
28577;SDS011;15769;52.248;15.818;2022-10-30T00:48:32;51.55;;;28.02;;
28577;SDS011;15769;52.248;15.818;2022-10-30T00:53:35;46.92;;;27.33;;
28577;SDS011;15769;52.248;15.818;2022-10-30T00:58:39;45.00;;;26.42;;
28577;SDS011;15769;52.248;15.818;2022-10-30T01:03:44;44.97;;;27.15;;
28577;SDS011;15769;52.248;15.818;2022-10-30T01:08:48;46.72;;;25.60;;
28577;SDS011;15769;52.248;15.818;2022-10-30T01:14:04;39.58;;;24.48;;
28577;SDS011;15769;52.248;15.818;2022-10-30T01:24:45;41.03;;;24.88;;
28577;SDS011;15769;52.248;15.818;2022-10-30T01:30:14;37.85;;;24.30;;
28577;SDS011;15769;52.248;15.818;2022-10-30T01:35:33;38.17;;;23.30;;
28577;SDS011;15769;52.248;15.818;2022-10-30T01:40:42;38.60;;;24.23;;
28577;SDS011;15769;52.248;15.818;2022-10-30T02:01:59;37.25;;;23.70;;
28577;SDS011;15769;52.248;15.818;2022-10-30T02:07:05;42.17;;;24.73;;
28577;SDS011;15769;52.248;15.818;2022-10-30T02:12:17;43.35;;;26.15;;
28577;SDS011;15769;52.248;15.818;2022-10-30T02:17:19;43.60;;;25.55;;
28577;SDS011;15769;52.248;15.818;2022-10-30T02:22:24;43.10;;;25.70;;
28577;SDS011;15769;52.248;15.818;2022-10-30T02:27:30;43.73;;;25.77;;
28577;SDS011;15769;52.248;15.818;2022-10-30T02:32:33;47.05;;;27.73;;
28577;SDS011;15769;52.248;15.818;2022-10-30T02:37:35;44.80;;;26.30;;
28577;SDS011;15769;52.248;15.818;2022-10-30T02:42:38;41.58;;;26.13;;
28577;SDS011;15769;52.248;15.818;2022-10-30T02:47:41;40.42;;;23.27;;
28577;SDS011;15769;52.248;15.818;2022-10-30T02:52:43;42.85;;;24.20;;
28577;SDS011;15769;52.248;15.818;2022-10-30T02:57:46;40.65;;;24.38;;
28577;SDS011;15769;52.248;15.818;2022-10-30T03:02:53;31.42;;;20.42;;
28577;SDS011;15769;52.248;15.818;2022-10-30T03:07:58;40.10;;;22.77;;
28577;SDS011;15769;52.248;15.818;2022-10-30T03:13:05;41.42;;;23.52;;
28577;SDS011;15769;52.248;15.818;2022-10-30T03:18:07;37.38;;;22.23;;
28577;SDS011;15769;52.248;15.818;2022-10-30T03:23:15;34.60;;;20.48;;
28577;SDS011;15769;52.248;15.818;2022-10-30T03:28:22;32.50;;;20.38;;
28577;SDS011;15769;52.248;15.818;2022-10-30T03:33:26;29.92;;;19.30;;
28577;SDS011;15769;52.248;15.818;2022-10-30T03:38:29;28.73;;;19.93;;
28577;SDS011;15769;52.248;15.818;2022-10-30T03:43:33;25.17;;;17.58;;
28577;SDS011;15769;52.248;15.818;2022-10-30T03:53:49;19.75;;;15.60;;
28577;SDS011;15769;52.248;15.818;2022-10-30T03:58:51;22.27;;;16.15;;
28577;SDS011;15769;52.248;15.818;2022-10-30T04:03:56;21.30;;;15.50;;
28577;SDS011;15769;52.248;15.818;2022-10-30T04:14:07;18.98;;;14.57;;
28577;SDS011;15769;52.248;15.818;2022-10-30T04:19:09;18.65;;;14.55;;
28577;SDS011;15769;52.248;15.818;2022-10-30T04:24:12;19.00;;;13.57;;
28577;SDS011;15769;52.248;15.818;2022-10-30T04:29:19;16.85;;;13.65;;
28577;SDS011;15769;52.248;15.818;2022-10-30T04:34:21;20.05;;;14.40;;
28577;SDS011;15769;52.248;15.818;2022-10-30T04:39:29;22.17;;;16.10;;
28577;SDS011;15769;52.248;15.818;2022-10-30T04:44:42;24.25;;;16.60;;
28577;SDS011;15769;52.248;15.818;2022-10-30T04:49:44;24.27;;;16.45;;
28577;SDS011;15769;52.248;15.818;2022-10-30T04:54:46;25.90;;;18.15;;
28577;SDS011;15769;52.248;15.818;2022-10-30T04:59:56;23.30;;;17.08;;
28577;SDS011;15769;52.248;15.818;2022-10-30T05:05:00;23.40;;;16.65;;
28577;SDS011;15769;52.248;15.818;2022-10-30T05:10:03;27.08;;;17.50;;
28577;SDS011;15769;52.248;15.818;2022-10-30T05:15:05;23.90;;;17.00;;
28577;SDS011;15769;52.248;15.818;2022-10-30T05:20:10;23.60;;;16.83;;
28577;SDS011;15769;52.248;15.818;2022-10-30T05:25:19;24.98;;;17.35;;
28577;SDS011;15769;52.248;15.818;2022-10-30T05:30:21;28.92;;;19.30;;
28577;SDS011;15769;52.248;15.818;2022-10-30T05:35:23;30.25;;;20.95;;
28577;SDS011;15769;52.248;15.818;2022-10-30T05:40:27;30.80;;;20.53;;
28577;SDS011;15769;52.248;15.818;2022-10-30T05:45:34;32.47;;;20.17;;
28577;SDS011;15769;52.248;15.818;2022-10-30T05:50:39;29.95;;;21.42;;
28577;SDS011;15769;52.248;15.818;2022-10-30T05:55:54;28.50;;;20.80;;
28577;SDS011;15769;52.248;15.818;2022-10-30T06:00:59;32.15;;;21.83;;
28577;SDS011;15769;52.248;15.818;2022-10-30T06:06:18;34.88;;;21.75;;
28577;SDS011;15769;52.248;15.818;2022-10-30T06:11:22;31.52;;;21.17;;
28577;SDS011;15769;52.248;15.818;2022-10-30T06:16:28;35.63;;;21.90;;
28577;SDS011;15769;52.248;15.818;2022-10-30T06:22:06;39.17;;;23.15;;
28577;SDS011;15769;52.248;15.818;2022-10-30T06:27:15;33.85;;;21.85;;
28577;SDS011;15769;52.248;15.818;2022-10-30T06:32:19;30.17;;;20.02;;
28577;SDS011;15769;52.248;15.818;2022-10-30T06:37:23;27.58;;;19.85;;
28577;SDS011;15769;52.248;15.818;2022-10-30T06:42:26;28.08;;;19.52;;
28577;SDS011;15769;52.248;15.818;2022-10-30T06:47:56;29.80;;;19.80;;
28577;SDS011;15769;52.248;15.818;2022-10-30T06:53:00;31.48;;;22.27;;
28577;SDS011;15769;52.248;15.818;2022-10-30T06:58:03;29.60;;;20.98;;
28577;SDS011;15769;52.248;15.818;2022-10-30T07:03:18;31.05;;;21.38;;
28577;SDS011;15769;52.248;15.818;2022-10-30T07:08:21;35.08;;;23.85;;
28577;SDS011;15769;52.248;15.818;2022-10-30T07:13:24;29.58;;;21.25;;
28577;SDS011;15769;52.248;15.818;2022-10-30T07:18:33;23.15;;;16.90;;
28577;SDS011;15769;52.248;15.818;2022-10-30T07:23:36;26.77;;;18.52;;
28577;SDS011;15769;52.248;15.818;2022-10-30T07:28:53;26.20;;;18.52;;
28577;SDS011;15769;52.248;15.818;2022-10-30T07:34:07;24.02;;;18.95;;
28577;SDS011;15769;52.248;15.818;2022-10-30T07:39:23;24.30;;;17.98;;
28577;SDS011;15769;52.248;15.818;2022-10-30T07:44:46;22.48;;;16.42;;
28577;SDS011;15769;52.248;15.818;2022-10-30T07:49:52;25.15;;;17.27;;
28577;SDS011;15769;52.248;15.818;2022-10-30T07:54:55;22.00;;;15.20;;
28577;SDS011;15769;52.248;15.818;2022-10-30T08:00:27;23.33;;;15.77;;
28577;SDS011;15769;52.248;15.818;2022-10-30T08:05:46;26.42;;;16.55;;
28577;SDS011;15769;52.248;15.818;2022-10-30T08:10:55;27.05;;;19.00;;
28577;SDS011;15769;52.248;15.818;2022-10-30T08:16:04;98.25;;;46.83;;
28577;SDS011;15769;52.248;15.818;2022-10-30T08:22:04;66.60;;;38.85;;
28577;SDS011;15769;52.248;15.818;2022-10-30T08:27:13;35.72;;;25.02;;
28577;SDS011;15769;52.248;15.818;2022-10-30T08:37:56;20.75;;;14.82;;
28577;SDS011;15769;52.248;15.818;2022-10-30T08:42:59;24.38;;;16.38;;
28577;SDS011;15769;52.248;15.818;2022-10-30T08:48:03;22.88;;;14.80;;
28577;SDS011;15769;52.248;15.818;2022-10-30T08:53:11;22.02;;;14.93;;
28577;SDS011;15769;52.248;15.818;2022-10-30T08:58:14;22.90;;;16.40;;
28577;SDS011;15769;52.248;15.818;2022-10-30T09:03:21;21.40;;;15.30;;
28577;SDS011;15769;52.248;15.818;2022-10-30T09:08:53;24.67;;;16.53;;
28577;SDS011;15769;52.248;15.818;2022-10-30T09:14:14;20.90;;;15.55;;
28577;SDS011;15769;52.248;15.818;2022-10-30T09:19:18;18.77;;;14.02;;
28577;SDS011;15769;52.248;15.818;2022-10-30T09:24:23;22.63;;;15.65;;
28577;SDS011;15769;52.248;15.818;2022-10-30T09:29:25;22.87;;;15.73;;
28577;SDS011;15769;52.248;15.818;2022-10-30T09:34:40;23.10;;;15.45;;
28577;SDS011;15769;52.248;15.818;2022-10-30T09:39:48;24.50;;;16.30;;
28577;SDS011;15769;52.248;15.818;2022-10-30T09:50:49;25.10;;;15.50;;
28577;SDS011;15769;52.248;15.818;2022-10-30T09:56:03;26.60;;;16.60;;
28577;SDS011;15769;52.248;15.818;2022-10-30T10:01:36;27.13;;;17.33;;
28577;SDS011;15769;52.248;15.818;2022-10-30T10:06:43;54.88;;;42.70;;
28577;SDS011;15769;52.248;15.818;2022-10-30T10:12:10;36.30;;;28.88;;
28577;SDS011;15769;52.248;15.818;2022-10-30T10:17:18;30.13;;;19.58;;
28577;SDS011;15769;52.248;15.818;2022-10-30T10:22:45;29.35;;;16.58;;
28577;SDS011;15769;52.248;15.818;2022-10-30T10:28:05;20.47;;;15.73;;
28577;SDS011;15769;52.248;15.818;2022-10-30T10:49:18;27.00;;;17.05;;
28577;SDS011;15769;52.248;15.818;2022-10-30T10:54:51;24.58;;;14.52;;
28577;SDS011;15769;52.248;15.818;2022-10-30T10:59:57;24.02;;;15.70;;
28577;SDS011;15769;52.248;15.818;2022-10-30T11:05:15;19.58;;;13.52;;
28577;SDS011;15769;52.248;15.818;2022-10-30T11:10:22;22.00;;;14.57;;
28577;SDS011;15769;52.248;15.818;2022-10-30T11:21:18;21.38;;;15.18;;
28577;SDS011;15769;52.248;15.818;2022-10-30T11:26:27;19.00;;;13.10;;
28577;SDS011;15769;52.248;15.818;2022-10-30T11:31:43;25.13;;;14.38;;
28577;SDS011;15769;52.248;15.818;2022-10-30T11:36:47;20.15;;;13.48;;
28577;SDS011;15769;52.248;15.818;2022-10-30T11:42:18;21.63;;;13.50;;
28577;SDS011;15769;52.248;15.818;2022-10-30T11:47:27;23.85;;;13.23;;
28577;SDS011;15769;52.248;15.818;2022-10-30T11:52:35;20.80;;;12.80;;
28577;SDS011;15769;52.248;15.818;2022-10-30T11:57:43;18.38;;;11.55;;
28577;SDS011;15769;52.248;15.818;2022-10-30T12:02:57;14.07;;;10.35;;
28577;SDS011;15769;52.248;15.818;2022-10-30T12:13:12;14.93;;;10.13;;
28577;SDS011;15769;52.248;15.818;2022-10-30T12:18:17;19.55;;;10.90;;
28577;SDS011;15769;52.248;15.818;2022-10-30T12:23:24;22.17;;;11.55;;
28577;SDS011;15769;52.248;15.818;2022-10-30T12:28:29;20.83;;;11.77;;
28577;SDS011;15769;52.248;15.818;2022-10-30T12:33:44;17.17;;;10.27;;
28577;SDS011;15769;52.248;15.818;2022-10-30T12:38:51;19.58;;;11.30;;
28577;SDS011;15769;52.248;15.818;2022-10-30T12:49:28;17.77;;;12.20;;
28577;SDS011;15769;52.248;15.818;2022-10-30T12:54:47;20.75;;;13.13;;
28577;SDS011;15769;52.248;15.818;2022-10-30T13:00:13;17.98;;;12.10;;
28577;SDS011;15769;52.248;15.818;2022-10-30T13:10:29;18.52;;;12.00;;
28577;SDS011;15769;52.248;15.818;2022-10-30T13:15:35;16.77;;;12.35;;
28577;SDS011;15769;52.248;15.818;2022-10-30T13:20:39;21.60;;;12.85;;
28577;SDS011;15769;52.248;15.818;2022-10-30T13:31:46;16.55;;;11.32;;
28577;SDS011;15769;52.248;15.818;2022-10-30T13:36:39;23.15;;;11.00;;
28577;SDS011;15769;52.248;15.818;2022-10-30T13:41:55;17.33;;;10.80;;
28577;SDS011;15769;52.248;15.818;2022-10-30T13:47:16;17.88;;;10.73;;
28577;SDS011;15769;52.248;15.818;2022-10-30T13:52:33;25.05;;;12.50;;
28577;SDS011;15769;52.248;15.818;2022-10-30T14:02:56;20.08;;;10.57;;
28577;SDS011;15769;52.248;15.818;2022-10-30T14:18:58;19.27;;;10.00;;
28577;SDS011;15769;52.248;15.818;2022-10-30T14:29:39;22.58;;;12.00;;
28577;SDS011;15769;52.248;15.818;2022-10-30T14:39:52;22.45;;;11.50;;
28577;SDS011;15769;52.248;15.818;2022-10-30T14:45:18;18.00;;;10.35;;
28577;SDS011;15769;52.248;15.818;2022-10-30T14:55:32;19.73;;;12.07;;
28577;SDS011;15769;52.248;15.818;2022-10-30T15:00:38;21.77;;;12.00;;
28577;SDS011;15769;52.248;15.818;2022-10-30T15:11:24;22.23;;;12.00;;
28577;SDS011;15769;52.248;15.818;2022-10-30T15:16:32;20.35;;;12.43;;
28577;SDS011;15769;52.248;15.818;2022-10-30T15:21:41;21.05;;;12.48;;
28577;SDS011;15769;52.248;15.818;2022-10-30T15:26:51;22.38;;;12.35;;
28577;SDS011;15769;52.248;15.818;2022-10-30T15:32:17;21.85;;;13.40;;
28577;SDS011;15769;52.248;15.818;2022-10-30T15:37:21;24.67;;;12.82;;
28577;SDS011;15769;52.248;15.818;2022-10-30T15:42:24;26.33;;;16.93;;
28577;SDS011;15769;52.248;15.818;2022-10-30T15:47:26;30.60;;;17.33;;
28577;SDS011;15769;52.248;15.818;2022-10-30T15:52:29;35.30;;;23.17;;
28577;SDS011;15769;52.248;15.818;2022-10-30T15:57:37;36.05;;;21.70;;
28577;SDS011;15769;52.248;15.818;2022-10-30T16:03:15;35.05;;;20.83;;
28577;SDS011;15769;52.248;15.818;2022-10-30T16:08:19;33.13;;;20.33;;
28577;SDS011;15769;52.248;15.818;2022-10-30T16:13:29;110.28;;;65.60;;
28577;SDS011;15769;52.248;15.818;2022-10-30T16:18:33;92.45;;;52.50;;
28577;SDS011;15769;52.248;15.818;2022-10-30T16:23:39;82.32;;;46.55;;
28577;SDS011;15769;52.248;15.818;2022-10-30T16:28:45;82.70;;;47.28;;
28577;SDS011;15769;52.248;15.818;2022-10-30T16:33:48;78.75;;;47.13;;
28577;SDS011;15769;52.248;15.818;2022-10-30T16:39:14;80.82;;;46.25;;
28577;SDS011;15769;52.248;15.818;2022-10-30T16:44:30;76.53;;;42.75;;
28577;SDS011;15769;52.248;15.818;2022-10-30T16:49:34;66.18;;;40.55;;
28577;SDS011;15769;52.248;15.818;2022-10-30T16:54:37;65.43;;;39.17;;
28577;SDS011;15769;52.248;15.818;2022-10-30T16:59:43;68.38;;;38.72;;
28577;SDS011;15769;52.248;15.818;2022-10-30T17:04:59;67.35;;;38.08;;
28577;SDS011;15769;52.248;15.818;2022-10-30T17:15:38;66.47;;;39.92;;
28577;SDS011;15769;52.248;15.818;2022-10-30T17:20:42;68.82;;;41.35;;
28577;SDS011;15769;52.248;15.818;2022-10-30T17:26:14;73.15;;;41.50;;
28577;SDS011;15769;52.248;15.818;2022-10-30T17:36:18;63.88;;;37.95;;
28577;SDS011;15769;52.248;15.818;2022-10-30T17:41:21;68.57;;;42.60;;
28577;SDS011;15769;52.248;15.818;2022-10-30T17:46:23;94.50;;;54.13;;
28577;SDS011;15769;52.248;15.818;2022-10-30T17:51:27;106.88;;;58.53;;
28577;SDS011;15769;52.248;15.818;2022-10-30T17:56:30;103.97;;;60.10;;
28577;SDS011;15769;52.248;15.818;2022-10-30T18:01:35;121.40;;;69.10;;
28577;SDS011;15769;52.248;15.818;2022-10-30T18:06:37;120.60;;;67.55;;
28577;SDS011;15769;52.248;15.818;2022-10-30T18:11:41;164.00;;;92.57;;
28577;SDS011;15769;52.248;15.818;2022-10-30T18:16:45;149.35;;;84.82;;
28577;SDS011;15769;52.248;15.818;2022-10-30T18:21:57;144.65;;;84.10;;
28577;SDS011;15769;52.248;15.818;2022-10-30T18:27:06;135.80;;;78.37;;
28577;SDS011;15769;52.248;15.818;2022-10-30T18:32:09;126.20;;;75.93;;
28577;SDS011;15769;52.248;15.818;2022-10-30T18:37:11;112.60;;;63.63;;
28577;SDS011;15769;52.248;15.818;2022-10-30T18:42:13;104.78;;;58.63;;
28577;SDS011;15769;52.248;15.818;2022-10-30T18:47:16;94.78;;;52.72;;
28577;SDS011;15769;52.248;15.818;2022-10-30T18:52:19;83.55;;;48.88;;
28577;SDS011;15769;52.248;15.818;2022-10-30T18:57:43;82.55;;;47.97;;
28577;SDS011;15769;52.248;15.818;2022-10-30T19:02:47;77.78;;;44.20;;
28577;SDS011;15769;52.248;15.818;2022-10-30T19:07:52;62.88;;;38.05;;
28577;SDS011;15769;52.248;15.818;2022-10-30T19:13:01;62.27;;;36.53;;
28577;SDS011;15769;52.248;15.818;2022-10-30T19:18:14;68.65;;;39.88;;
28577;SDS011;15769;52.248;15.818;2022-10-30T19:23:19;71.55;;;41.03;;
28577;SDS011;15769;52.248;15.818;2022-10-30T19:28:23;73.05;;;40.13;;
28577;SDS011;15769;52.248;15.818;2022-10-30T19:33:26;68.95;;;39.08;;
28577;SDS011;15769;52.248;15.818;2022-10-30T19:38:29;65.97;;;39.83;;
28577;SDS011;15769;52.248;15.818;2022-10-30T19:43:32;60.75;;;36.92;;
28577;SDS011;15769;52.248;15.818;2022-10-30T19:48:34;63.77;;;37.37;;
28577;SDS011;15769;52.248;15.818;2022-10-30T19:54:00;59.80;;;35.05;;
28577;SDS011;15769;52.248;15.818;2022-10-30T19:59:04;66.63;;;37.30;;
28577;SDS011;15769;52.248;15.818;2022-10-30T20:04:11;64.85;;;38.92;;
28577;SDS011;15769;52.248;15.818;2022-10-30T20:09:30;63.38;;;37.42;;
28577;SDS011;15769;52.248;15.818;2022-10-30T20:14:34;59.40;;;33.92;;
28577;SDS011;15769;52.248;15.818;2022-10-30T20:19:36;59.63;;;35.42;;
28577;SDS011;15769;52.248;15.818;2022-10-30T20:24:39;52.90;;;33.28;;
28577;SDS011;15769;52.248;15.818;2022-10-30T20:29:41;51.42;;;32.60;;
28577;SDS011;15769;52.248;15.818;2022-10-30T20:39:50;48.20;;;31.63;;
28577;SDS011;15769;52.248;15.818;2022-10-30T20:44:52;52.28;;;31.48;;
28577;SDS011;15769;52.248;15.818;2022-10-30T20:49:56;56.63;;;31.20;;
28577;SDS011;15769;52.248;15.818;2022-10-30T20:54:58;44.72;;;29.60;;
28577;SDS011;15769;52.248;15.818;2022-10-30T21:00:00;40.53;;;26.55;;
28577;SDS011;15769;52.248;15.818;2022-10-30T21:05:04;42.80;;;26.88;;
28577;SDS011;15769;52.248;15.818;2022-10-30T21:10:24;54.97;;;32.15;;
28577;SDS011;15769;52.248;15.818;2022-10-30T21:15:31;50.90;;;31.90;;
28577;SDS011;15769;52.248;15.818;2022-10-30T21:20:35;44.17;;;28.48;;
28577;SDS011;15769;52.248;15.818;2022-10-30T21:25:47;47.30;;;28.37;;
28577;SDS011;15769;52.248;15.818;2022-10-30T21:31:48;43.15;;;28.58;;
28577;SDS011;15769;52.248;15.818;2022-10-30T21:37:25;52.75;;;28.55;;
28577;SDS011;15769;52.248;15.818;2022-10-30T21:42:27;55.03;;;31.50;;
28577;SDS011;15769;52.248;15.818;2022-10-30T21:47:30;56.08;;;30.90;;
28577;SDS011;15769;52.248;15.818;2022-10-30T21:52:33;52.95;;;28.60;;
28577;SDS011;15769;52.248;15.818;2022-10-30T21:57:35;48.53;;;26.38;;
28577;SDS011;15769;52.248;15.818;2022-10-30T22:03:05;48.85;;;26.67;;
28577;SDS011;15769;52.248;15.818;2022-10-30T22:08:15;47.45;;;26.13;;
28577;SDS011;15769;52.248;15.818;2022-10-30T22:13:18;53.92;;;28.05;;
28577;SDS011;15769;52.248;15.818;2022-10-30T22:18:41;53.05;;;26.88;;
28577;SDS011;15769;52.248;15.818;2022-10-30T22:23:43;48.38;;;24.98;;
28577;SDS011;15769;52.248;15.818;2022-10-30T22:29:11;47.60;;;23.98;;
28577;SDS011;15769;52.248;15.818;2022-10-30T22:34:13;47.00;;;23.95;;
28577;SDS011;15769;52.248;15.818;2022-10-30T22:39:15;46.58;;;24.40;;
28577;SDS011;15769;52.248;15.818;2022-10-30T22:44:17;50.72;;;26.70;;
28577;SDS011;15769;52.248;15.818;2022-10-30T22:49:20;46.37;;;25.90;;
28577;SDS011;15769;52.248;15.818;2022-10-30T22:54:22;47.78;;;26.10;;
28577;SDS011;15769;52.248;15.818;2022-10-30T22:59:25;49.97;;;27.27;;
28577;SDS011;15769;52.248;15.818;2022-10-30T23:04:27;50.58;;;26.65;;
28577;SDS011;15769;52.248;15.818;2022-10-30T23:09:29;52.47;;;28.13;;
28577;SDS011;15769;52.248;15.818;2022-10-30T23:14:31;56.97;;;28.90;;
28577;SDS011;15769;52.248;15.818;2022-10-30T23:19:34;50.15;;;27.23;;
28577;SDS011;15769;52.248;15.818;2022-10-30T23:24:37;53.95;;;27.73;;
28577;SDS011;15769;52.248;15.818;2022-10-30T23:29:39;51.35;;;27.02;;
28577;SDS011;15769;52.248;15.818;2022-10-30T23:34:41;55.65;;;29.13;;
28577;SDS011;15769;52.248;15.818;2022-10-30T23:40:06;56.57;;;31.90;;
28577;SDS011;15769;52.248;15.818;2022-10-30T23:45:17;61.40;;;32.47;;
28577;SDS011;15769;52.248;15.818;2022-10-30T23:50:22;57.10;;;29.48;;
28577;SDS011;15769;52.248;15.818;2022-10-30T23:55:52;57.08;;;30.58;;
